sensor_id;sensor_type;location;lat;lon;timestamp;pressure;altitude;pressure_sealevel;temperature;humidity
11124;BME280;5616;42.692;23.312;2022-09-09T00:00:47;95347.97;;;19.37;76.11
11124;BME280;5616;42.692;23.312;2022-09-09T00:03:18;95343.53;;;19.38;76.13
11124;BME280;5616;42.692;23.312;2022-09-09T00:05:52;95344.09;;;19.40;76.07
11124;BME280;5616;42.692;23.312;2022-09-09T00:08:27;95345.22;;;19.32;76.18
11124;BME280;5616;42.692;23.312;2022-09-09T00:11:01;95339.31;;;19.25;76.55
11124;BME280;5616;42.692;23.312;2022-09-09T00:13:34;95342.13;;;19.24;76.95
11124;BME280;5616;42.692;23.312;2022-09-09T00:16:08;95340.44;;;19.29;76.49
11124;BME280;5616;42.692;23.312;2022-09-09T00:18:49;95347.75;;;19.39;76.19
11124;BME280;5616;42.692;23.312;2022-09-09T00:21:18;95339.66;;;19.40;75.42
11124;BME280;5616;42.692;23.312;2022-09-09T00:23:50;95328.75;;;19.43;75.53
11124;BME280;5616;42.692;23.312;2022-09-09T00:26:22;95325.53;;;19.30;75.63
11124;BME280;5616;42.692;23.312;2022-09-09T00:28:56;95319.03;;;19.21;75.65
11124;BME280;5616;42.692;23.312;2022-09-09T00:31:29;95315.19;;;19.12;75.71
11124;BME280;5616;42.692;23.312;2022-09-09T00:34:00;95315.38;;;19.10;75.98
11124;BME280;5616;42.692;23.312;2022-09-09T00:36:32;95310.63;;;19.19;75.76
11124;BME280;5616;42.692;23.312;2022-09-09T00:39:01;95303.09;;;19.22;75.43
11124;BME280;5616;42.692;23.312;2022-09-09T00:41:39;95293.88;;;19.31;75.06
11124;BME280;5616;42.692;23.312;2022-09-09T00:44:21;95292.41;;;19.35;75.39
11124;BME280;5616;42.692;23.312;2022-09-09T00:46:59;95296.50;;;19.43;75.33
11124;BME280;5616;42.692;23.312;2022-09-09T00:49:38;95304.34;;;19.31;75.31
11124;BME280;5616;42.692;23.312;2022-09-09T00:52:18;95313.13;;;19.25;75.58
11124;BME280;5616;42.692;23.312;2022-09-09T00:54:54;95302.66;;;19.25;75.75
11124;BME280;5616;42.692;23.312;2022-09-09T00:57:28;95301.97;;;19.30;76.26
11124;BME280;5616;42.692;23.312;2022-09-09T01:00:02;95298.09;;;19.09;76.65
11124;BME280;5616;42.692;23.312;2022-09-09T01:02:38;95308.47;;;19.04;77.17
11124;BME280;5616;42.692;23.312;2022-09-09T01:05:11;95300.38;;;19.06;76.98
11124;BME280;5616;42.692;23.312;2022-09-09T01:07:44;95306.38;;;19.18;76.80
11124;BME280;5616;42.692;23.312;2022-09-09T01:10:22;95305.38;;;19.19;76.83
11124;BME280;5616;42.692;23.312;2022-09-09T01:12:58;95312.31;;;19.25;76.67
11124;BME280;5616;42.692;23.312;2022-09-09T01:15:31;95308.34;;;19.22;76.33
11124;BME280;5616;42.692;23.312;2022-09-09T01:18:02;95306.19;;;19.19;76.70
11124;BME280;5616;42.692;23.312;2022-09-09T01:20:41;95312.78;;;19.22;76.85
11124;BME280;5616;42.692;23.312;2022-09-09T01:23:30;95303.66;;;19.24;77.18
11124;BME280;5616;42.692;23.312;2022-09-09T01:26:25;95298.44;;;19.24;77.99
11124;BME280;5616;42.692;23.312;2022-09-09T01:28:55;95303.78;;;19.06;79.00
11124;BME280;5616;42.692;23.312;2022-09-09T01:31:32;95300.38;;;19.06;78.86
11124;BME280;5616;42.692;23.312;2022-09-09T01:34:02;95304.94;;;18.99;79.77
11124;BME280;5616;42.692;23.312;2022-09-09T01:36:37;95316.19;;;18.87;80.93
11124;BME280;5616;42.692;23.312;2022-09-09T01:39:05;95318.66;;;18.94;80.62
11124;BME280;5616;42.692;23.312;2022-09-09T01:41:34;95318.75;;;18.76;81.30
11124;BME280;5616;42.692;23.312;2022-09-09T01:44:08;95326.16;;;18.79;81.63
11124;BME280;5616;42.692;23.312;2022-09-09T01:46:37;95313.66;;;18.81;81.52
11124;BME280;5616;42.692;23.312;2022-09-09T01:49:07;95313.53;;;18.76;82.40
11124;BME280;5616;42.692;23.312;2022-09-09T01:51:36;95324.31;;;18.56;82.70
11124;BME280;5616;42.692;23.312;2022-09-09T01:54:07;95334.84;;;18.50;83.86
11124;BME280;5616;42.692;23.312;2022-09-09T01:56:42;95324.81;;;18.47;84.22
11124;BME280;5616;42.692;23.312;2022-09-09T01:59:24;95329.25;;;18.46;83.73
11124;BME280;5616;42.692;23.312;2022-09-09T02:02:04;95328.03;;;18.49;83.61
11124;BME280;5616;42.692;23.312;2022-09-09T02:04:39;95317.72;;;18.54;83.54
11124;BME280;5616;42.692;23.312;2022-09-09T02:07:22;95313.28;;;18.36;83.53
11124;BME280;5616;42.692;23.312;2022-09-09T02:09:58;95321.81;;;18.31;83.93
11124;BME280;5616;42.692;23.312;2022-09-09T02:12:30;95311.78;;;18.28;83.50
11124;BME280;5616;42.692;23.312;2022-09-09T02:15:03;95307.72;;;18.32;82.88
11124;BME280;5616;42.692;23.312;2022-09-09T02:17:41;95291.91;;;18.27;81.74
11124;BME280;5616;42.692;23.312;2022-09-09T02:20:14;95305.44;;;18.24;81.66
11124;BME280;5616;42.692;23.312;2022-09-09T02:22:55;95305.56;;;18.29;80.85
11124;BME280;5616;42.692;23.312;2022-09-09T02:25:26;95311.16;;;18.33;80.83
11124;BME280;5616;42.692;23.312;2022-09-09T02:28:01;95316.03;;;18.41;80.64
11124;BME280;5616;42.692;23.312;2022-09-09T02:30:32;95314.59;;;18.45;80.67
11124;BME280;5616;42.692;23.312;2022-09-09T02:33:02;95318.97;;;18.51;81.05
11124;BME280;5616;42.692;23.312;2022-09-09T02:35:51;95312.03;;;18.57;81.08
11124;BME280;5616;42.692;23.312;2022-09-09T02:38:23;95321.22;;;18.48;81.50
11124;BME280;5616;42.692;23.312;2022-09-09T02:40:59;95331.28;;;18.44;81.82
11124;BME280;5616;42.692;23.312;2022-09-09T02:43:32;95314.72;;;18.50;81.78
11124;BME280;5616;42.692;23.312;2022-09-09T02:46:05;95321.72;;;18.38;81.68
11124;BME280;5616;42.692;23.312;2022-09-09T02:48:41;95324.47;;;18.43;81.85
11124;BME280;5616;42.692;23.312;2022-09-09T02:51:16;95329.25;;;18.46;81.82
11124;BME280;5616;42.692;23.312;2022-09-09T02:53:51;95327.66;;;18.45;82.94
11124;BME280;5616;42.692;23.312;2022-09-09T02:56:25;95324.13;;;18.40;82.11
11124;BME280;5616;42.692;23.312;2022-09-09T02:58:56;95323.44;;;18.44;81.51
11124;BME280;5616;42.692;23.312;2022-09-09T03:01:24;95330.50;;;18.44;80.89
11124;BME280;5616;42.692;23.312;2022-09-09T03:03:51;95324.41;;;18.20;82.05
11124;BME280;5616;42.692;23.312;2022-09-09T03:06:18;95336.06;;;18.17;82.30
11124;BME280;5616;42.692;23.312;2022-09-09T03:08:50;95329.75;;;18.25;81.96
11124;BME280;5616;42.692;23.312;2022-09-09T03:11:22;95327.47;;;18.28;81.33
11124;BME280;5616;42.692;23.312;2022-09-09T03:13:49;95330.56;;;18.07;82.67
11124;BME280;5616;42.692;23.312;2022-09-09T03:16:20;95331.75;;;18.11;82.14
11124;BME280;5616;42.692;23.312;2022-09-09T03:18:50;95324.72;;;18.23;81.70
11124;BME280;5616;42.692;23.312;2022-09-09T03:21:19;95324.66;;;18.30;80.91
11124;BME280;5616;42.692;23.312;2022-09-09T03:23:46;95320.25;;;18.12;82.11
11124;BME280;5616;42.692;23.312;2022-09-09T03:26:14;95316.13;;;18.05;82.11
11124;BME280;5616;42.692;23.312;2022-09-09T03:28:44;95313.56;;;17.87;83.00
11124;BME280;5616;42.692;23.312;2022-09-09T03:31:13;95328.28;;;17.81;82.99
11124;BME280;5616;42.692;23.312;2022-09-09T03:33:43;95323.06;;;17.81;83.68
11124;BME280;5616;42.692;23.312;2022-09-09T03:36:12;95319.16;;;17.72;83.34
11124;BME280;5616;42.692;23.312;2022-09-09T03:38:40;95325.41;;;17.71;83.85
11124;BME280;5616;42.692;23.312;2022-09-09T03:41:07;95325.41;;;17.71;83.88
11124;BME280;5616;42.692;23.312;2022-09-09T03:43:35;95317.78;;;17.69;83.41
11124;BME280;5616;42.692;23.312;2022-09-09T03:46:03;95323.78;;;17.70;83.25
11124;BME280;5616;42.692;23.312;2022-09-09T03:48:30;95322.59;;;17.73;82.68
11124;BME280;5616;42.692;23.312;2022-09-09T03:50:59;95327.34;;;17.57;83.81
11124;BME280;5616;42.692;23.312;2022-09-09T03:53:29;95328.81;;;17.71;83.18
11124;BME280;5616;42.692;23.312;2022-09-09T03:55:57;95328.28;;;17.63;83.56
11124;BME280;5616;42.692;23.312;2022-09-09T03:58:27;95333.44;;;17.51;84.39
11124;BME280;5616;42.692;23.312;2022-09-09T04:01:01;95333.06;;;17.48;84.95
11124;BME280;5616;42.692;23.312;2022-09-09T04:03:28;95335.13;;;17.64;84.56
11124;BME280;5616;42.692;23.312;2022-09-09T04:05:57;95338.59;;;17.76;83.95
11124;BME280;5616;42.692;23.312;2022-09-09T04:08:27;95340.25;;;17.70;84.09
11124;BME280;5616;42.692;23.312;2022-09-09T04:10:55;95329.31;;;17.80;83.80
11124;BME280;5616;42.692;23.312;2022-09-09T04:13:25;95333.94;;;17.78;83.58
11124;BME280;5616;42.692;23.312;2022-09-09T04:15:53;95329.31;;;17.80;83.68
11124;BME280;5616;42.692;23.312;2022-09-09T04:18:21;95329.16;;;17.93;83.13
11124;BME280;5616;42.692;23.312;2022-09-09T04:20:50;95316.13;;;17.75;83.98
11124;BME280;5616;42.692;23.312;2022-09-09T04:23:20;95332.13;;;17.79;83.19
11124;BME280;5616;42.692;23.312;2022-09-09T04:25:49;95323.28;;;17.80;84.27
11124;BME280;5616;42.692;23.312;2022-09-09T04:28:19;95329.88;;;17.82;83.51
11124;BME280;5616;42.692;23.312;2022-09-09T04:30:46;95329.88;;;17.82;83.63
11124;BME280;5616;42.692;23.312;2022-09-09T04:33:14;95333.34;;;17.94;83.02
11124;BME280;5616;42.692;23.312;2022-09-09T04:35:44;95334.66;;;18.03;82.62
11124;BME280;5616;42.692;23.312;2022-09-09T04:38:14;95333.50;;;17.99;82.41
11124;BME280;5616;42.692;23.312;2022-09-09T04:40:42;95334.53;;;17.98;82.48
11124;BME280;5616;42.692;23.312;2022-09-09T04:43:11;95343.06;;;18.05;82.60
11124;BME280;5616;42.692;23.312;2022-09-09T04:45:40;95336.53;;;18.14;82.38
11124;BME280;5616;42.692;23.312;2022-09-09T04:48:07;95333.00;;;18.20;81.87
11124;BME280;5616;42.692;23.312;2022-09-09T04:50:35;95325.78;;;18.22;81.49
11124;BME280;5616;42.692;23.312;2022-09-09T04:53:03;95331.81;;;18.34;81.30
11124;BME280;5616;42.692;23.312;2022-09-09T04:55:31;95323.66;;;18.43;81.33
11124;BME280;5616;42.692;23.312;2022-09-09T04:57:57;95324.41;;;18.50;81.41
11124;BME280;5616;42.692;23.312;2022-09-09T05:00:30;95325.63;;;18.47;81.54
11124;BME280;5616;42.692;23.312;2022-09-09T05:02:57;95321.56;;;18.51;81.34
11124;BME280;5616;42.692;23.312;2022-09-09T05:05:24;95322.25;;;18.58;81.39
11124;BME280;5616;42.692;23.312;2022-09-09T05:07:52;95314.53;;;18.63;80.39
11124;BME280;5616;42.692;23.312;2022-09-09T05:10:19;95303.38;;;18.56;79.26
11124;BME280;5616;42.692;23.312;2022-09-09T05:12:52;95309.66;;;18.67;78.84
11124;BME280;5616;42.692;23.312;2022-09-09T05:15:21;95328.66;;;18.74;79.10
11124;BME280;5616;42.692;23.312;2022-09-09T05:17:50;95323.47;;;18.85;78.91
11124;BME280;5616;42.692;23.312;2022-09-09T05:20:19;95321.53;;;18.92;78.55
11124;BME280;5616;42.692;23.312;2022-09-09T05:22:47;95322.00;;;19.01;77.93
11124;BME280;5616;42.692;23.312;2022-09-09T05:25:15;95314.81;;;19.08;77.21
11124;BME280;5616;42.692;23.312;2022-09-09T05:27:41;95316.97;;;19.23;75.89
11124;BME280;5616;42.692;23.312;2022-09-09T05:30:09;95315.84;;;19.30;74.96
11124;BME280;5616;42.692;23.312;2022-09-09T05:32:36;95319.19;;;19.37;73.89
11124;BME280;5616;42.692;23.312;2022-09-09T05:35:05;95310.97;;;19.45;73.90
11124;BME280;5616;42.692;23.312;2022-09-09T05:37:32;95320.19;;;19.60;73.88
11124;BME280;5616;42.692;23.312;2022-09-09T05:40:00;95315.16;;;19.70;72.46
11124;BME280;5616;42.692;23.312;2022-09-09T05:42:30;95309.19;;;19.86;71.66
11124;BME280;5616;42.692;23.312;2022-09-09T05:44:57;95319.88;;;19.96;71.69
11124;BME280;5616;42.692;23.312;2022-09-09T05:47:25;95319.41;;;19.99;71.63
11124;BME280;5616;42.692;23.312;2022-09-09T05:49:54;95325.31;;;20.06;71.52
11124;BME280;5616;42.692;23.312;2022-09-09T05:52:22;95329.25;;;20.20;71.70
11124;BME280;5616;42.692;23.312;2022-09-09T05:54:51;95310.06;;;20.31;69.87
11124;BME280;5616;42.692;23.312;2022-09-09T05:57:19;95310.41;;;20.35;69.24
11124;BME280;5616;42.692;23.312;2022-09-09T05:59:46;95325.41;;;20.39;68.69
11124;BME280;5616;42.692;23.312;2022-09-09T06:02:13;95317.16;;;20.47;68.62
11124;BME280;5616;42.692;23.312;2022-09-09T06:04:40;95330.97;;;20.54;69.00
11124;BME280;5616;42.692;23.312;2022-09-09T06:07:07;95337.25;;;20.70;67.97
11124;BME280;5616;42.692;23.312;2022-09-09T06:09:36;95335.59;;;20.81;67.08
11124;BME280;5616;42.692;23.312;2022-09-09T06:12:03;95338.53;;;20.84;67.87
11124;BME280;5616;42.692;23.312;2022-09-09T06:14:33;95329.31;;;20.98;67.25
11124;BME280;5616;42.692;23.312;2022-09-09T06:17:01;95328.69;;;21.08;65.49
11124;BME280;5616;42.692;23.312;2022-09-09T06:19:29;95335.94;;;21.17;65.41
11124;BME280;5616;42.692;23.312;2022-09-09T06:21:58;95336.78;;;21.23;64.30
11124;BME280;5616;42.692;23.312;2022-09-09T06:24:26;95335.84;;;21.29;64.44
11124;BME280;5616;42.692;23.312;2022-09-09T06:26:57;95337.31;;;21.42;65.05
11124;BME280;5616;42.692;23.312;2022-09-09T06:29:28;95332.53;;;21.55;64.77
11124;BME280;5616;42.692;23.312;2022-09-09T06:31:55;95337.22;;;21.70;63.59
11124;BME280;5616;42.692;23.312;2022-09-09T06:34:25;95329.28;;;21.86;64.70
11124;BME280;5616;42.692;23.312;2022-09-09T06:36:54;95326.22;;;21.94;62.23
11124;BME280;5616;42.692;23.312;2022-09-09T06:39:23;95314.94;;;21.94;61.22
11124;BME280;5616;42.692;23.312;2022-09-09T06:41:51;95322.56;;;21.96;62.83
11124;BME280;5616;42.692;23.312;2022-09-09T06:44:43;95323.06;;;21.54;62.76
11124;BME280;5616;42.692;23.312;2022-09-09T06:47:16;95312.28;;;21.72;60.69
11124;BME280;5616;42.692;23.312;2022-09-09T06:49:43;95320.44;;;21.92;60.01
11124;BME280;5616;42.692;23.312;2022-09-09T06:52:10;95327.19;;;22.10;59.24
11124;BME280;5616;42.692;23.312;2022-09-09T06:54:37;95328.69;;;22.23;58.20
11124;BME280;5616;42.692;23.312;2022-09-09T06:57:05;95336.94;;;22.36;57.21
11124;BME280;5616;42.692;23.312;2022-09-09T06:59:34;95331.78;;;22.41;57.27
11124;BME280;5616;42.692;23.312;2022-09-09T07:02:03;95331.72;;;22.63;57.31
11124;BME280;5616;42.692;23.312;2022-09-09T07:04:31;95339.19;;;22.49;57.39
11124;BME280;5616;42.692;23.312;2022-09-09T07:06:58;95341.31;;;22.74;55.49
11124;BME280;5616;42.692;23.312;2022-09-09T07:09:25;95340.19;;;22.97;55.91
11124;BME280;5616;42.692;23.312;2022-09-09T07:11:53;95337.53;;;22.97;55.23
11124;BME280;5616;42.692;23.312;2022-09-09T07:14:23;95330.97;;;22.99;55.12
11124;BME280;5616;42.692;23.312;2022-09-09T07:16:57;95324.00;;;22.78;55.54
11124;BME280;5616;42.692;23.312;2022-09-09T07:19:25;95325.78;;;23.04;54.57
11124;BME280;5616;42.692;23.312;2022-09-09T07:21:54;95325.44;;;23.33;54.52
11124;BME280;5616;42.692;23.312;2022-09-09T07:24:22;95328.19;;;23.48;52.82
11124;BME280;5616;42.692;23.312;2022-09-09T07:26:50;95323.22;;;23.51;52.77
11124;BME280;5616;42.692;23.312;2022-09-09T07:29:17;95322.53;;;23.76;52.34
11124;BME280;5616;42.692;23.312;2022-09-09T07:31:44;95321.47;;;23.67;53.17
11124;BME280;5616;42.692;23.312;2022-09-09T07:34:16;95316.56;;;23.91;52.11
11124;BME280;5616;42.692;23.312;2022-09-09T07:36:45;95306.03;;;23.96;53.12
11124;BME280;5616;42.692;23.312;2022-09-09T07:39:13;95310.88;;;24.24;52.18
11124;BME280;5616;42.692;23.312;2022-09-09T07:41:46;95312.22;;;24.37;51.24
11124;BME280;5616;42.692;23.312;2022-09-09T07:44:18;95320.72;;;24.54;50.47
11124;BME280;5616;42.692;23.312;2022-09-09T07:46:49;95324.19;;;24.74;49.58
11124;BME280;5616;42.692;23.312;2022-09-09T07:49:20;95329.25;;;25.01;48.66
11124;BME280;5616;42.692;23.312;2022-09-09T07:51:48;95321.59;;;25.25;48.26
11124;BME280;5616;42.692;23.312;2022-09-09T07:54:19;95328.47;;;25.01;49.30
11124;BME280;5616;42.692;23.312;2022-09-09T07:56:50;95326.03;;;24.74;50.50
11124;BME280;5616;42.692;23.312;2022-09-09T07:59:18;95317.63;;;25.12;51.35
11124;BME280;5616;42.692;23.312;2022-09-09T08:01:49;95308.09;;;25.41;49.95
11124;BME280;5616;42.692;23.312;2022-09-09T08:04:22;95308.97;;;26.01;49.60
11124;BME280;5616;42.692;23.312;2022-09-09T08:06:53;95322.00;;;26.51;46.64
11124;BME280;5616;42.692;23.312;2022-09-09T08:09:22;95324.84;;;27.04;45.70
11124;BME280;5616;42.692;23.312;2022-09-09T08:11:51;95320.84;;;27.35;45.13
11124;BME280;5616;42.692;23.312;2022-09-09T08:14:18;95321.31;;;27.47;42.91
11124;BME280;5616;42.692;23.312;2022-09-09T08:16:47;95314.19;;;27.66;42.98
11124;BME280;5616;42.692;23.312;2022-09-09T08:19:17;95315.72;;;27.72;43.09
11124;BME280;5616;42.692;23.312;2022-09-09T08:21:45;95319.72;;;27.93;44.16
11124;BME280;5616;42.692;23.312;2022-09-09T08:24:15;95313.44;;;27.84;42.63
11124;BME280;5616;42.692;23.312;2022-09-09T08:26:48;95320.16;;;28.01;43.06
11124;BME280;5616;42.692;23.312;2022-09-09T08:29:17;95318.16;;;28.16;43.53
11124;BME280;5616;42.692;23.312;2022-09-09T08:31:47;95309.69;;;28.14;43.48
11124;BME280;5616;42.692;23.312;2022-09-09T08:34:15;95314.25;;;27.85;42.08
11124;BME280;5616;42.692;23.312;2022-09-09T08:36:44;95305.38;;;27.47;44.24
11124;BME280;5616;42.692;23.312;2022-09-09T08:39:14;95310.22;;;27.40;44.82
11124;BME280;5616;42.692;23.312;2022-09-09T08:42:13;95305.34;;;27.18;45.61
11124;BME280;5616;42.692;23.312;2022-09-09T08:45:13;95305.56;;;26.93;46.35
11124;BME280;5616;42.692;23.312;2022-09-09T08:47:48;95301.09;;;26.89;46.85
11124;BME280;5616;42.692;23.312;2022-09-09T08:50:25;95298.81;;;27.63;45.48
11124;BME280;5616;42.692;23.312;2022-09-09T08:53:01;95295.69;;;28.27;44.96
11124;BME280;5616;42.692;23.312;2022-09-09T08:55:37;95291.84;;;28.57;43.12
11124;BME280;5616;42.692;23.312;2022-09-09T08:58:13;95296.44;;;28.51;41.44
11124;BME280;5616;42.692;23.312;2022-09-09T09:00:55;95298.53;;;28.92;41.62
11124;BME280;5616;42.692;23.312;2022-09-09T09:03:33;95290.56;;;29.05;42.10
11124;BME280;5616;42.692;23.312;2022-09-09T09:06:09;95298.75;;;29.28;41.88
11124;BME280;5616;42.692;23.312;2022-09-09T09:08:45;95290.50;;;29.10;40.12
11124;BME280;5616;42.692;23.312;2022-09-09T09:11:17;95300.88;;;29.58;40.00
11124;BME280;5616;42.692;23.312;2022-09-09T09:13:52;95302.81;;;29.66;38.69
11124;BME280;5616;42.692;23.312;2022-09-09T09:16:24;95292.69;;;30.09;38.95
11124;BME280;5616;42.692;23.312;2022-09-09T09:18:53;95278.59;;;30.08;38.27
11124;BME280;5616;42.692;23.312;2022-09-09T09:21:31;95282.22;;;30.26;39.51
11124;BME280;5616;42.692;23.312;2022-09-09T09:24:01;95294.28;;;29.96;37.93
11124;BME280;5616;42.692;23.312;2022-09-09T09:26:34;95285.50;;;29.55;38.66
11124;BME280;5616;42.692;23.312;2022-09-09T09:29:10;95283.41;;;29.20;39.14
11124;BME280;5616;42.692;23.312;2022-09-09T09:31:42;95289.91;;;28.81;39.47
11124;BME280;5616;42.692;23.312;2022-09-09T09:34:11;95291.84;;;28.57;40.85
11124;BME280;5616;42.692;23.312;2022-09-09T09:36:41;95279.31;;;28.63;40.66
11124;BME280;5616;42.692;23.312;2022-09-09T09:39:22;95282.88;;;28.72;40.30
11124;BME280;5616;42.692;23.312;2022-09-09T09:41:50;95270.28;;;28.77;42.16
11124;BME280;5616;42.692;23.312;2022-09-09T09:44:25;95268.50;;;28.73;42.55
11124;BME280;5616;42.692;23.312;2022-09-09T09:47:04;95270.56;;;28.94;41.13
11124;BME280;5616;42.692;23.312;2022-09-09T09:49:32;95265.97;;;29.13;42.75
11124;BME280;5616;42.692;23.312;2022-09-09T09:52:00;95260.38;;;29.15;43.74
11124;BME280;5616;42.692;23.312;2022-09-09T09:54:30;95268.22;;;29.06;42.98
11124;BME280;5616;42.692;23.312;2022-09-09T09:57:09;95257.31;;;28.76;41.04
11124;BME280;5616;42.692;23.312;2022-09-09T09:59:41;95256.16;;;28.44;41.62
11124;BME280;5616;42.692;23.312;2022-09-09T10:02:24;95249.41;;;27.91;43.47
11124;BME280;5616;42.692;23.312;2022-09-09T10:05:08;95262.81;;;28.05;45.42
11124;BME280;5616;42.692;23.312;2022-09-09T10:07:40;95261.47;;;28.07;42.99
11124;BME280;5616;42.692;23.312;2022-09-09T10:10:13;95265.97;;;28.07;42.86
11124;BME280;5616;42.692;23.312;2022-09-09T10:12:49;95269.63;;;28.11;43.99
11124;BME280;5616;42.692;23.312;2022-09-09T10:15:31;95275.78;;;28.06;45.19
11124;BME280;5616;42.692;23.312;2022-09-09T10:18:13;95274.66;;;27.88;45.68
11124;BME280;5616;42.692;23.312;2022-09-09T10:20:45;95278.81;;;27.76;44.99
11124;BME280;5616;42.692;23.312;2022-09-09T10:23:29;95279.50;;;27.63;47.29
11124;BME280;5616;42.692;23.312;2022-09-09T10:26:11;95275.69;;;27.45;44.59
11124;BME280;5616;42.692;23.312;2022-09-09T10:29:08;95283.16;;;27.38;45.33
11124;BME280;5616;42.692;23.312;2022-09-09T10:31:48;95270.00;;;27.28;48.60
11124;BME280;5616;42.692;23.312;2022-09-09T10:34:30;95272.47;;;27.19;45.91
11124;BME280;5616;42.692;23.312;2022-09-09T10:37:13;95281.22;;;27.20;48.03
11124;BME280;5616;42.692;23.312;2022-09-09T10:39:44;95284.72;;;27.15;48.88
11124;BME280;5616;42.692;23.312;2022-09-09T10:42:12;95280.22;;;27.11;48.51
11124;BME280;5616;42.692;23.312;2022-09-09T10:44:59;95281.81;;;27.12;49.18
11124;BME280;5616;42.692;23.312;2022-09-09T10:47:51;95284.97;;;27.14;48.90
11124;BME280;5616;42.692;23.312;2022-09-09T10:50:38;95286.56;;;27.15;48.57
11124;BME280;5616;42.692;23.312;2022-09-09T10:53:14;95279.56;;;27.24;48.14
11124;BME280;5616;42.692;23.312;2022-09-09T10:55:45;95283.25;;;27.28;48.54
11124;BME280;5616;42.692;23.312;2022-09-09T10:58:19;95281.66;;;27.27;48.77
11124;BME280;5616;42.692;23.312;2022-09-09T11:00:53;95283.22;;;27.33;47.00
11124;BME280;5616;42.692;23.312;2022-09-09T11:03:26;95278.66;;;27.39;48.88
11124;BME280;5616;42.692;23.312;2022-09-09T11:05:57;95270.94;;;27.37;49.31
11124;BME280;5616;42.692;23.312;2022-09-09T11:08:29;95273.91;;;27.36;49.31
11124;BME280;5616;42.692;23.312;2022-09-09T11:11:01;95276.59;;;27.30;47.88
11124;BME280;5616;42.692;23.312;2022-09-09T11:13:34;95276.41;;;27.22;49.12
11124;BME280;5616;42.692;23.312;2022-09-09T11:16:10;95275.97;;;27.15;48.34
11124;BME280;5616;42.692;23.312;2022-09-09T11:18:44;95269.88;;;27.14;48.18
11124;BME280;5616;42.692;23.312;2022-09-09T11:21:19;95274.06;;;27.20;48.04
11124;BME280;5616;42.692;23.312;2022-09-09T11:23:50;95260.75;;;27.25;50.19
11124;BME280;5616;42.692;23.312;2022-09-09T11:26:28;95265.13;;;27.40;47.58
11124;BME280;5616;42.692;23.312;2022-09-09T11:29:08;95258.03;;;27.59;48.32
11124;BME280;5616;42.692;23.312;2022-09-09T11:31:44;95244.63;;;27.69;49.04
11124;BME280;5616;42.692;23.312;2022-09-09T11:34:30;95239.81;;;27.71;47.82
11124;BME280;5616;42.692;23.312;2022-09-09T11:37:11;95225.00;;;27.70;47.70
11124;BME280;5616;42.692;23.312;2022-09-09T11:40:04;95225.44;;;27.77;47.54
11124;BME280;5616;42.692;23.312;2022-09-09T11:42:35;95214.25;;;27.80;47.05
11124;BME280;5616;42.692;23.312;2022-09-09T11:45:10;95205.00;;;27.78;50.38
11124;BME280;5616;42.692;23.312;2022-09-09T11:47:38;95202.03;;;27.79;48.63
11124;BME280;5616;42.692;23.312;2022-09-09T11:50:26;95187.41;;;27.82;47.14
11124;BME280;5616;42.692;23.312;2022-09-09T11:55:59;95181.31;;;27.63;50.12
11124;BME280;5616;42.692;23.312;2022-09-09T11:58:27;95185.91;;;27.76;50.29
11124;BME280;5616;42.692;23.312;2022-09-09T12:00:58;95189.34;;;27.95;47.07
11124;BME280;5616;42.692;23.312;2022-09-09T12:03:41;95189.13;;;28.15;46.97
11124;BME280;5616;42.692;23.312;2022-09-09T12:06:15;95199.66;;;28.39;46.75
11124;BME280;5616;42.692;23.312;2022-09-09T12:08:47;95193.03;;;28.55;46.78
11124;BME280;5616;42.692;23.312;2022-09-09T12:11:25;95178.50;;;28.66;45.48
11124;BME280;5616;42.692;23.312;2022-09-09T12:13:53;95160.69;;;28.67;45.55
11124;BME280;5616;42.692;23.312;2022-09-09T12:16:29;95165.91;;;28.72;45.61
11124;BME280;5616;42.692;23.312;2022-09-09T12:19:12;95163.38;;;28.80;47.72
11124;BME280;5616;42.692;23.312;2022-09-09T12:21:48;95160.41;;;28.68;46.78
11124;BME280;5616;42.692;23.312;2022-09-09T12:24:26;95161.22;;;28.82;46.32
11124;BME280;5616;42.692;23.312;2022-09-09T12:26:59;95166.25;;;28.97;45.76
11124;BME280;5616;42.692;23.312;2022-09-09T12:29:34;95159.09;;;29.11;44.64
11124;BME280;5616;42.692;23.312;2022-09-09T12:32:07;95156.78;;;29.24;44.15
11124;BME280;5616;42.692;23.312;2022-09-09T12:34:41;95146.72;;;29.21;44.75
11124;BME280;5616;42.692;23.312;2022-09-09T12:37:17;95152.22;;;29.10;45.36
11124;BME280;5616;42.692;23.312;2022-09-09T12:39:52;95149.31;;;28.80;46.01
11124;BME280;5616;42.692;23.312;2022-09-09T12:42:21;95146.03;;;28.69;47.84
11124;BME280;5616;42.692;23.312;2022-09-09T12:44:53;95145.50;;;28.35;47.17
11124;BME280;5616;42.692;23.312;2022-09-09T12:47:21;95149.69;;;28.41;48.22
11124;BME280;5616;42.692;23.312;2022-09-09T12:49:50;95142.31;;;28.19;48.59
11124;BME280;5616;42.692;23.312;2022-09-09T12:52:24;95139.00;;;28.27;47.54
11124;BME280;5616;42.692;23.312;2022-09-09T12:54:52;95134.97;;;28.30;47.91
11124;BME280;5616;42.692;23.312;2022-09-09T12:57:23;95133.25;;;28.39;47.89
11124;BME280;5616;42.692;23.312;2022-09-09T12:59:51;95128.16;;;28.56;48.82
11124;BME280;5616;42.692;23.312;2022-09-09T13:02:21;95133.75;;;28.73;47.05
11124;BME280;5616;42.692;23.312;2022-09-09T13:04:49;95134.94;;;28.81;46.58
11124;BME280;5616;42.692;23.312;2022-09-09T13:07:16;95129.81;;;28.84;47.57
11124;BME280;5616;42.692;23.312;2022-09-09T13:09:46;95130.50;;;28.76;46.97
11124;BME280;5616;42.692;23.312;2022-09-09T13:12:15;95122.59;;;28.71;46.00
11124;BME280;5616;42.692;23.312;2022-09-09T13:14:44;95120.47;;;28.73;45.72
11124;BME280;5616;42.692;23.312;2022-09-09T13:17:19;95120.66;;;28.77;45.77
11124;BME280;5616;42.692;23.312;2022-09-09T13:19:47;95118.91;;;28.86;46.13
11124;BME280;5616;42.692;23.312;2022-09-09T13:22:21;95111.63;;;28.91;46.54
11124;BME280;5616;42.692;23.312;2022-09-09T13:24:58;95098.63;;;28.76;46.26
11124;BME280;5616;42.692;23.312;2022-09-09T13:27:29;95096.63;;;28.68;47.00
11124;BME280;5616;42.692;23.312;2022-09-09T13:29:56;95095.38;;;28.61;48.37